Latest Coastal Weather Observations for Cape Grim

IDV60701

Issued at 1:35 am EDT Sunday 26 October 2014 (issued every 10 minutes, with the page automatically refreshed every 10 minutes)

About coastal observations | Map of coastal stations | Coastal observations for VIC | Marine services | Other Formats
Station Details ID: 091331 Name: CAPE GRIM Lat: -40.68 Lon: 144.69 Height: 86.0 m
Data from the previous 72 hours. | See also: Recent months at Cape Grim
Date/Time
EDT
Temp

°C
Wind Pressure Rain
since 9am
mm
Weather Cloud Vis
km
Sea
Height
m
Swell
Dir
 
Speed
knots
Gust
knots
hPa Trend Height
m
Period
s
Dir
26/01:30am 12.2 SSW 7 10 1014.1 - 0.0 - Cloudy - - - - -
26/01:00am 11.6 SE 11 14 1013.8 - 0.0 - Cloudy - - - - -
26/12:30am 12.0 S 13 18 1015.2 - 0.0 - Cloudy - - - - -
26/12:05am 12.0 S 12 17 1015.1 - 0.0 - Cloudy - - - - -
26/12:00am 12.0 S 13 18 1015.0 - 0.0 - Cloudy - - - - -
 
Date/Time
EDT
Temp

°C
Wind Pressure Rain
since 9am
mm
Weather Cloud Vis
km
Sea
Height
m
Swell
Dir
 
Speed
knots
Gust
knots
hPa Trend Height
m
Period
s
Dir
25/11:30pm 12.0 S 13 17 1015.4 - 0.0 - Cloudy - - - - -
25/11:00pm 12.1 SSW 18 23 1015.6 - 0.0 - Cloudy - - - - -
25/10:30pm 12.1 SSW 14 21 1016.0 - 0.0 - Partly cloudy - - - - -
25/10:00pm 11.8 SSW 14 21 1015.9 - 0.0 - - - - - - -
25/09:30pm 11.6 SSW 11 18 1015.6 - 0.0 - - - - - - -
25/09:00pm 11.7 SSW 16 22 1015.5 - 0.0 - Mostly clear - - - - -
25/08:30pm 11.7 SSW 18 22 1015.1 - 0.0 - - - - - - -
25/08:16pm 11.7 SSW 18 28 1014.9 - 0.0 - Partly cloudy - - - - -
25/08:10pm 11.7 SSW 20 28 1014.9 - 0.0 - Partly cloudy - - - - -
25/08:00pm 11.7 SSW 18 25 1014.9 - 0.0 - Partly cloudy - - - - -
25/07:30pm 11.8 SSW 17 24 1014.9 - 0.0 - Cloudy - - - - -
25/07:17pm 11.9 SW 17 27 1015.0 - 0.0 - Partly cloudy - - - - -
25/07:00pm 12.1 SW 20 29 1015.2 - 0.0 - Partly cloudy - - - - -
25/06:48pm 12.1 SW 21 31 1015.1 - 0.0 - Partly cloudy - - - - -
25/06:30pm 12.4 SW 20 26 1014.8 - 0.0 - Partly cloudy - - - - -
25/06:15pm 12.6 SW 20 26 1014.8 - 0.0 - Partly cloudy - - - - -
25/06:00pm 12.6 SW 20 27 1014.8 - 0.0 - Partly cloudy - - - - -
25/05:30pm 12.6 SW 22 28 1014.9 - 0.0 - Partly cloudy - - - - -
25/05:29pm 12.5 SW 22 28 1014.9 - 0.0 - Partly cloudy - - - - -
25/05:12pm 12.6 SW 21 26 1014.7 - 0.0 - Partly cloudy - - - - -
25/05:00pm 12.7 SW 21 27 1014.7 - 0.0 - Partly cloudy - - - - -
25/04:30pm 13.1 SW 20 25 1014.8 - 0.0 - - - - - - -
25/04:00pm 13.1 SW 21 24 1015.0 - 0.0 - - - - - - -
25/03:30pm 12.9 SW 22 27 1015.3 - 0.0 - Partly cloudy - - - - -
25/03:00pm 13.0 SW 22 28 1015.6 - 0.0 - Partly cloudy - - - - -
25/02:30pm 13.4 SW 21 26 1016.0 - 0.0 - Partly cloudy - - - - -
25/02:00pm 13.3 SW 19 23 1016.1 - 0.0 - - - - - - -
25/01:30pm 12.8 SW 19 24 1016.3 - 0.0 - Partly cloudy - - - - -
25/01:00pm 13.1 SW 19 23 1016.6 - 0.0 - Partly cloudy - - - - -
25/12:30pm 12.5 SW 16 22 1016.7 - 0.0 - Cloudy - - - - -
25/12:00pm 12.6 SSW 14 18 1017.0 - 0.0 - Cloudy - - - - -
25/11:30am 12.5 SW 14 20 1017.4 - 0.0 - Partly cloudy - - - - -
25/11:17am 12.7 SW 17 21 1017.6 - 0.0 - Partly cloudy - - - - -
25/11:00am 12.4 SW 14 20 1017.5 - 0.0 - Partly cloudy - - - - -
25/10:30am 12.1 SW 13 18 1017.5 - 0.0 - Partly cloudy - - - - -
25/10:06am 12.2 SSW 12 16 1017.1 - 0.0 - Cloudy - - - - -
25/10:01am 12.2 SSW 13 18 1017.2 - 0.0 - Cloudy - - - - -
25/10:00am 12.2 SSW 13 18 1017.2 - 0.0 - Cloudy - - - - -
25/09:30am 12.3 SW 13 18 1017.0 - 0.0 - Partly cloudy - - - - -
25/09:18am 12.2 SW 15 19 1017.0 - 0.0 - Partly cloudy - - - - -
25/09:00am 12.1 SW 15 20 1016.9 - 0.0 - Cloudy - - - - -
25/08:30am 12.1 SW 16 22 1016.6 - 0.0 - Partly cloudy - - - - -
25/08:00am 12.1 SW 15 21 1016.4 - 0.0 - Partly cloudy - - - - -
25/07:35am 12.1 SW 15 21 1016.1 - 0.0 - Partly cloudy - - - - -
25/07:30am 12.0 SW 17 22 1016.0 - 0.0 - Partly cloudy - - - - -
25/07:00am 12.0 SW 18 21 1015.3 - 0.0 - Partly cloudy - - - - -
25/06:32am 12.2 SW 15 20 1015.2 - 0.0 - Partly cloudy - - - - -
25/06:30am 12.3 SW 14 19 1015.3 - 0.0 - Partly cloudy - - - - -
25/06:00am 12.2 SW 17 22 1015.2 - 0.0 - Cloudy - - - - -
25/05:30am 12.3 SW 20 25 1014.8 - 0.0 - Partly cloudy - - - - -
25/05:00am 12.4 SW 20 25 1014.4 - 0.0 - Partly cloudy - - - - -
25/04:30am 12.4 SW 20 25 1014.0 - 0.0 - Partly cloudy - - - - -
25/04:26am 12.5 SW 20 25 1014.0 - 0.0 - Partly cloudy - - - - -
25/04:00am 12.5 SW 19 25 1013.8 - 0.0 - Partly cloudy - - - - -
25/03:30am 12.6 SW 21 27 1013.7 - 0.0 - Partly cloudy - - - - -
25/03:00am 12.7 SW 18 23 1013.6 - 0.0 - Mostly cloudy - - - - -
25/02:30am 12.7 SW 21 27 1013.6 - 0.0 - Cloudy - - - - -
25/02:00am 12.8 SW 19 26 1013.5 - 0.0 - Cloudy - - - - -
25/01:30am 12.9 SW 16 24 1013.5 - 0.0 - Cloudy - - - - -
25/01:00am 12.9 WSW 15 23 1013.6 - 0.0 - Cloudy - - - - -
25/12:30am 12.9 WSW 13 23 1013.6 - 0.0 - Cloudy - - - - -
25/12:00am 13.0 W 13 21 1013.5 - 0.0 - Mostly cloudy - - - - -
 
Date/Time
EDT
Temp

°C
Wind Pressure Rain
since 9am
mm
Weather Cloud Vis
km
Sea
Height
m
Swell
Dir
 
Speed
knots
Gust
knots
hPa Trend Height
m
Period
s
Dir
24/11:30pm 13.1 W 11 20 1013.0 - 0.0 - Partly cloudy - - - - -
24/11:00pm 13.2 W 13 19 1012.7 - 0.0 - Cloudy - - - - -
24/10:30pm 13.4 W 14 18 1012.7 - 0.0 - Cloudy - - - - -
24/10:00pm 13.5 W 14 18 1012.7 - 0.0 - Cloudy - - - - -
24/09:30pm 13.5 W 12 16 1012.3 - 0.0 - Cloudy - - - - -
24/09:00pm 13.5 W 12 16 1012.0 - 0.0 - Mostly cloudy - - - - -
24/08:30pm 13.5 W 10 14 1011.7 - 0.0 - Partly cloudy - - - - -
24/08:14pm 13.4 W 10 13 1011.4 - 0.0 - Partly cloudy - - - - -
24/08:00pm 13.4 W 9 12 1011.2 - 0.0 - Partly cloudy - - - - -
24/07:35pm 13.5 W 10 14 1011.0 - 0.0 - Partly cloudy - - - - -
24/07:30pm 13.5 W 10 14 1011.0 - 0.0 - Partly cloudy - - - - -
24/07:00pm 13.6 W 11 15 1010.8 - 0.0 - Partly cloudy - - - - -
24/06:30pm 13.7 W 16 21 1010.7 - 0.0 - Partly cloudy - - - - -
24/06:26pm 13.8 W 16 21 1010.7 - 0.0 - Partly cloudy - - - - -
24/06:00pm 14.1 N 8 10 1010.3 - 0.0 - Mostly cloudy - - - - -
24/05:30pm 14.4 ENE 11 15 1009.9 - 0.0 - Cloudy - - - - -
24/05:00pm 14.4 ENE 14 18 1009.5 - 0.0 - Cloudy - - - - -
24/04:30pm 14.3 ENE 17 22 1009.2 - 0.0 - Cloudy - - - - -
24/04:00pm 14.1 E 17 21 1009.8 - 0.0 - Cloudy - - - - -
24/03:30pm 13.9 E 19 24 1010.3 - 0.0 - Cloudy - - - - -
24/03:00pm 13.9 E 21 25 1010.3 - 0.0 - Cloudy - - - - -
24/02:30pm 13.8 E 22 27 1010.6 - 0.0 - Cloudy - - - - -
24/02:00pm 13.8 E 25 32 1010.6 - 0.0 - Cloudy - - - - -
24/01:30pm 13.5 E 27 34 1010.5 - 0.0 - Cloudy - - - - -
24/01:00pm 13.2 E 30 36 1010.3 - 0.0 - Cloudy - - - - -
24/12:30pm 13.0 E 28 35 1011.0 - 0.0 - Cloudy - - - - -
24/12:00pm 12.8 E 31 38 1011.1 - 0.0 - Cloudy - - - - -
24/11:38am 12.7 E 31 41 1011.3 - 0.0 - Cloudy - - - - -
24/11:30am 12.6 E 31 37 1011.4 - 0.0 - Cloudy - - - - -
24/11:00am 12.4 E 30 37 1012.2 - 0.0 - Cloudy - - - - -
24/10:30am 12.1 E 30 37 1012.6 - 0.0 - Cloudy - - - - -
24/10:00am 11.9 E 30 39 1013.0 - 0.0 - Cloudy - - - - -
24/09:30am 11.8 E 32 44 1012.7 - 0.0 - Cloudy - - - - -
24/09:11am 11.5 E 31 41 1013.2 - 0.0 - Cloudy - - - - -
24/09:00am 11.4 E 32 40 1013.4 - 0.0 - Cloudy - - - - -
24/08:30am 11.3 E 32 42 1013.9 - 0.0 - Cloudy - - - - -
24/08:24am 11.3 E 32 42 1013.9 - 0.0 - Cloudy - - - - -
24/08:00am 11.4 E 31 38 1014.1 - 0.0 - Cloudy - - - - -
24/07:38am 11.4 E 33 44 1013.9 - 0.0 - Cloudy - - - - -
24/07:30am 11.4 E 34 42 1013.9 - 0.0 - Cloudy - - - - -
24/07:00am 11.5 E 34 44 1014.3 - 0.0 - Cloudy - - - - -
24/06:41am 11.6 E 35 45 1014.2 - 0.0 - Cloudy - - - - -
24/06:30am 11.6 E 36 44 1014.4 - 0.0 - Cloudy - - - - -
24/06:01am 11.6 E 35 45 1014.5 - 0.0 - Cloudy - - - - -
24/06:00am 11.6 E 35 43 1014.6 - 0.0 - Cloudy - - - - -
24/05:35am 11.6 E 34 44 1014.9 - 0.0 - Cloudy - - - - -
24/05:30am 11.7 E 36 45 1015.0 - 0.0 - Cloudy - - - - -
24/05:27am 11.7 E 36 45 1015.0 - 0.0 - Partly cloudy - - - - -
24/05:00am 11.8 E 33 43 1015.5 - 0.0 - Partly cloudy - - - - -
24/04:30am 11.9 E 32 43 1015.5 - 0.0 - Partly cloudy - - - - -
24/04:22am 11.9 E 33 43 1015.7 - 0.0 - Partly cloudy - - - - -
24/04:00am 12.0 E 35 43 1015.6 - 0.0 - Cloudy - - - - -
24/03:43am 12.0 E 36 47 1015.5 - 0.0 - Cloudy - - - - -
24/03:30am 11.9 E 35 44 1015.6 - 0.0 - Cloudy - - - - -
24/03:03am 12.0 E 35 45 1016.2 - 0.0 - Partly cloudy - - - - -
24/03:00am 12.0 E 34 43 1016.5 - 0.0 - Cloudy - - - - -
24/02:30am 11.9 E 34 45 1017.0 - 0.0 - Cloudy - - - - -
24/02:00am 11.8 E 34 47 1017.7 - 0.0 - Partly cloudy - - - - -
24/01:34am 11.9 E 33 44 1018.0 - 0.0 - Partly cloudy - - - - -
24/01:30am 11.9 E 33 42 1018.2 - 0.0 - Partly cloudy - - - - -
24/01:00am 12.3 E 33 41 1018.7 - 0.0 - Partly cloudy - - - - -
24/12:30am 12.1 E 31 42 1019.1 - 0.0 - Partly cloudy - - - - -
24/12:11am 11.9 E 33 43 1019.1 - 0.0 - Partly cloudy - - - - -
24/12:00am 11.9 ENE 34 41 1019.2 - 0.0 - Mostly clear - - - - -
 
Date/Time
EDT
Temp

°C
Wind Pressure Rain
since 9am
mm
Weather Cloud Vis
km
Sea
Height
m
Swell
Dir
 
Speed
knots
Gust
knots
hPa Trend Height
m
Period
s
Dir
23/11:52pm 11.9 ENE 33 43 1019.4 - 0.0 - Partly cloudy - - - - -
23/11:30pm 12.0 ENE 35 42 1019.7 - 0.0 - - - - - - -
23/11:00pm 12.0 ENE 31 39 1020.0 - 0.0 - Partly cloudy - - - - -
23/10:30pm 12.1 E 29 36 1020.6 - 0.0 - Partly cloudy - - - - -
23/10:09pm 12.0 ENE 27 37 1020.8 - 0.0 - Partly cloudy - - - - -
23/10:00pm 12.2 ENE 30 37 1020.7 - 0.0 - Partly cloudy - - - - -
23/09:30pm 12.2 ENE 28 34 1020.9 - 0.0 - - - - - - -
23/09:00pm 12.2 ENE 23 35 1021.0 - 0.0 - - - - - - -
23/08:53pm 12.4 ENE 25 35 1020.9 - 0.0 - - - - - - -
23/08:30pm 12.3 ENE 22 28 1021.0 - 0.0 - - - - - - -
23/08:00pm 12.5 ENE 25 32 1020.6 - 0.0 - - - - - - -
23/07:30pm 12.6 ENE 22 29 1020.7 - 0.0 - - - - - - -
23/07:12pm 12.8 ENE 23 33 1020.6 - 0.0 - - - - - - -
23/07:00pm 13.0 ENE 23 29 1020.8 - 0.0 - - - - - - -
23/06:30pm 13.5 ENE 21 28 1021.0 - 0.0 - - - - - - -
23/06:00pm 14.0 ENE 20 27 1020.9 - 0.0 - - - - - - -
23/05:30pm 14.4 ENE 21 28 1021.0 - 0.0 - - - - - - -
23/05:00pm 14.5 ENE 21 26 1021.1 - 0.0 - - - - - - -
23/04:30pm 14.7 ENE 21 27 1021.2 - 0.0 - - - - - - -
23/04:00pm 14.9 ENE 21 25 1021.2 - 0.0 - Partly cloudy - - - - -
23/03:30pm 14.8 E 21 25 1021.5 - 0.0 - Cloudy - - - - -
23/03:00pm 15.2 ENE 20 25 1021.5 - 0.0 - Cloudy - - - - -
23/02:30pm 15.1 ENE 21 27 1021.8 - 0.0 - Partly cloudy - - - - -
23/02:11pm 14.7 ENE 20 25 1021.9 - 0.0 - Partly cloudy - - - - -
23/02:00pm 14.4 ENE 19 24 1022.0 - 0.0 - Cloudy - - - - -
23/01:30pm 14.4 ENE 21 25 1022.0 - 0.0 - Cloudy - - - - -
23/01:00pm 14.2 ENE 19 25 1022.0 - 0.0 - Partly cloudy - - - - -
23/12:47pm 14.0 ENE 17 21 1022.0 - 0.0 - Partly cloudy - - - - -
23/12:30pm 15.0 ENE 19 25 1021.9 - 0.0 - Cloudy - - - - -
23/12:02pm 15.9 ENE 18 22 1021.9 - 0.0 - Partly cloudy - - - - -
23/12:00pm 15.7 ENE 17 22 1022.0 - 0.0 - Mostly cloudy - - - - -
23/11:30am 14.8 ENE 17 21 1022.1 - 0.0 - Partly cloudy - - - - -
23/11:08am 15.1 ENE 16 19 1022.2 - 0.0 - Partly cloudy - - - - -
23/11:07am 15.4 ENE 16 19 1022.2 - 0.0 - Partly cloudy - - - - -
23/11:00am 15.0 ENE 16 19 1022.2 - 0.0 - Partly cloudy - - - - -
23/10:46am 14.5 ENE 17 21 1022.1 - 0.0 - Partly cloudy - - - - -
23/10:34am 14.6 ENE 14 18 1022.0 - 0.0 - Partly cloudy - - - - -
23/10:30am 14.5 ENE 14 16 1022.0 - 0.0 - Partly cloudy - - - - -
23/10:00am 13.8 ENE 12 16 1022.1 - 0.0 - Partly cloudy - - - - -
23/09:30am 13.3 E 11 14 1022.1 - 0.0 - Partly cloudy - - - - -
23/09:00am 13.1 E 10 12 1021.8 - 0.0 - Cloudy - - - - -
23/08:30am 12.7 SE 9 11 1021.7 - 0.0 - Cloudy - - - - -
23/08:28am 12.8 SE 9 12 1021.7 - 0.0 - Partly cloudy - - - - -
23/08:00am 13.2 SSE 9 12 1020.9 - 0.0 - - - - - - -
23/07:30am 12.1 SSE 11 16 1020.3 - 0.0 - - - - - - -
23/07:00am 11.7 S 9 14 1020.2 - 0.0 - - - - - - -
23/06:30am 11.8 SSW 11 14 1020.0 - 0.0 - - - - - - -
23/06:00am 11.9 S 11 16 1019.5 - 0.0 - - - - - - -
23/05:30am 11.9 S 11 14 1019.2 - 0.0 - - - - - - -
23/05:00am 12.0 S 12 16 1018.7 - 0.0 - - - - - - -
23/04:30am 12.0 S 11 16 1018.2 - 0.0 - - - - - - -
23/04:00am 11.8 S 13 18 1018.0 - 0.0 - Partly cloudy - - - - -
23/03:30am 11.7 S 10 14 1018.3 - 0.0 - - - - - - -
23/03:00am 12.3 SSW 14 22 1017.5 - 0.0 - - - - - - -
23/02:41am 12.3 S 15 19 1017.6 - 0.0 - Partly cloudy - - - - -
23/02:30am 12.3 S 14 20 1017.6 - 0.0 - Partly cloudy - - - - -
23/02:00am 12.5 SSW 17 21 1017.7 - 0.0 - Partly cloudy - - - - -

Other Formats:

Comma delimited format used in spreadsheet applications
http://www.bom.gov.au/fwo/IDV60701/IDV60701.95954.axf

JavaScript Object Notation format (JSON) in row-major order
http://www.bom.gov.au/fwo/IDV60701/IDV60701.95954.json